createdAt,value
2022-11-06T00:00:44.256Z,22.50
2022-11-06T00:03:11.835Z,22.50
2022-11-06T00:06:02.419Z,22.50
2022-11-06T00:08:32.197Z,22.50
2022-11-06T00:10:59.892Z,22.50
2022-11-06T00:13:28.556Z,22.60
2022-11-06T00:15:56.122Z,22.60
2022-11-06T00:18:26.249Z,22.60
2022-11-06T00:20:54.569Z,22.70
2022-11-06T00:23:22.130Z,22.70
2022-11-06T00:25:54.152Z,22.70
2022-11-06T00:28:21.801Z,22.80
2022-11-06T00:30:50.308Z,22.80
2022-11-06T00:33:18.069Z,22.80
2022-11-06T00:35:45.761Z,22.90
2022-11-06T00:38:13.462Z,23.00
2022-11-06T00:40:41.755Z,23.00
2022-11-06T00:43:10.105Z,23.10
2022-11-06T00:45:37.628Z,23.10
2022-11-06T00:48:05.326Z,23.10
2022-11-06T00:50:33.155Z,23.20
2022-11-06T00:53:00.695Z,23.20
2022-11-06T00:55:28.211Z,23.30
2022-11-06T00:57:55.757Z,23.30
2022-11-06T01:00:23.308Z,23.40
2022-11-06T01:02:52.180Z,23.50
2022-11-06T01:05:19.823Z,23.50
2022-11-06T01:07:47.379Z,23.60
2022-11-06T01:10:15.937Z,23.70
2022-11-06T01:12:43.728Z,23.70
2022-11-06T01:15:11.339Z,23.80
2022-11-06T01:17:39.384Z,23.90
2022-11-06T01:20:07.402Z,24.00
2022-11-06T01:22:35.187Z,24.00
2022-11-06T01:25:04.161Z,24.10
2022-11-06T01:27:32.312Z,24.20
2022-11-06T01:30:00.338Z,24.20
2022-11-06T01:32:27.962Z,24.30
2022-11-06T01:34:58.669Z,24.40
2022-11-06T01:37:39.825Z,24.40
2022-11-06T01:40:08.028Z,24.50
2022-11-06T01:42:35.534Z,24.60
2022-11-06T01:45:09.155Z,24.70
2022-11-06T01:47:36.965Z,24.70
2022-11-06T01:50:08.400Z,24.80
2022-11-06T01:52:36.641Z,24.80
2022-11-06T01:55:08.667Z,24.90
2022-11-06T01:57:36.285Z,24.90
2022-11-06T02:00:04.985Z,25.00
2022-11-06T02:02:32.784Z,25.10
2022-11-06T02:05:00.506Z,25.20
2022-11-06T02:07:31.389Z,25.20
2022-11-06T02:10:08.063Z,25.30
2022-11-06T02:12:59.153Z,25.40
2022-11-06T02:15:45.807Z,25.50
2022-11-06T02:18:19.616Z,25.50
2022-11-06T02:21:05.337Z,25.60
2022-11-06T02:23:45.281Z,25.60
2022-11-06T02:26:33.193Z,25.70
2022-11-06T02:29:07.395Z,25.70
2022-11-06T02:31:36.934Z,25.80
2022-11-06T02:34:10.805Z,25.90
2022-11-06T02:36:44.396Z,25.90
2022-11-06T02:39:14.987Z,25.90
2022-11-06T02:41:44.752Z,26.00
2022-11-06T02:44:15.212Z,26.10
2022-11-06T02:46:50.419Z,26.20
2022-11-06T02:49:20.001Z,26.30
2022-11-06T02:51:51.840Z,26.40
2022-11-06T02:54:21.741Z,26.40
2022-11-06T02:56:53.655Z,26.50
2022-11-06T02:59:33.472Z,26.50
2022-11-06T03:02:07.194Z,26.60
2022-11-06T03:04:38.318Z,26.60
2022-11-06T03:07:18.095Z,26.50
2022-11-06T03:09:46.100Z,26.60
2022-11-06T03:12:32.069Z,26.60
2022-11-06T03:15:03.717Z,26.70
2022-11-06T03:17:40.195Z,26.80
2022-11-06T03:20:27.084Z,26.80
2022-11-06T03:22:54.669Z,26.80
2022-11-06T03:25:35.795Z,26.80
2022-11-06T03:28:03.907Z,26.90
2022-11-06T03:30:33.978Z,26.90
2022-11-06T03:33:17.022Z,26.90
2022-11-06T03:35:46.718Z,26.90
2022-11-06T03:38:41.840Z,27.00
2022-11-06T03:41:13.534Z,27.00
2022-11-06T03:43:44.860Z,27.00
2022-11-06T03:46:17.190Z,27.10
2022-11-06T03:48:46.977Z,27.20
2022-11-06T03:51:20.575Z,27.30
2022-11-06T03:54:00.647Z,27.30
2022-11-06T03:57:00.275Z,27.30
2022-11-06T03:59:30.748Z,27.30
2022-11-06T04:01:59.488Z,27.40
2022-11-06T04:04:33.323Z,27.40
2022-11-06T04:07:03.899Z,27.50
2022-11-06T04:09:52.022Z,27.50
2022-11-06T04:12:40.242Z,27.60
2022-11-06T04:15:09.649Z,27.60
2022-11-06T04:17:38.082Z,27.60
2022-11-06T04:20:10.191Z,27.70
2022-11-06T04:22:49.936Z,27.70
2022-11-06T04:25:48.850Z,27.80
2022-11-06T04:28:16.452Z,27.90
2022-11-06T04:30:50.190Z,27.90
2022-11-06T04:33:25.945Z,27.90
2022-11-06T04:36:18.085Z,28.00
2022-11-06T04:39:02.066Z,28.00
2022-11-06T04:41:34.912Z,28.00
2022-11-06T04:44:09.614Z,28.10
2022-11-06T04:46:45.834Z,28.10
2022-11-06T04:49:13.880Z,28.10
2022-11-06T04:51:43.514Z,28.10
2022-11-06T04:54:11.501Z,28.10
2022-11-06T04:56:45.578Z,28.20
2022-11-06T04:59:17.789Z,28.20
2022-11-06T05:01:46.505Z,28.30
2022-11-06T05:04:14.168Z,28.40
2022-11-06T05:06:41.756Z,28.50
2022-11-06T05:09:10.111Z,28.50
2022-11-06T05:11:38.669Z,28.50
2022-11-06T05:14:06.289Z,28.50
2022-11-06T05:16:34.945Z,28.50
2022-11-06T05:19:02.469Z,28.50
2022-11-06T05:21:49.082Z,28.50
2022-11-06T05:24:16.700Z,28.60
2022-11-06T05:26:44.273Z,28.70
2022-11-06T05:29:12.763Z,28.80
2022-11-06T05:31:40.939Z,28.80
2022-11-06T05:34:08.490Z,28.80
2022-11-06T05:36:36.367Z,28.90
2022-11-06T05:39:04.077Z,28.90
2022-11-06T05:41:31.697Z,28.90
2022-11-06T05:44:02.778Z,29.00
2022-11-06T05:47:00.296Z,29.00
2022-11-06T05:49:19.805Z,29.00
2022-11-06T05:51:47.639Z,29.00
2022-11-06T05:54:15.331Z,29.00
2022-11-06T05:56:43.364Z,29.10
2022-11-06T05:59:10.953Z,29.10
2022-11-06T06:01:38.697Z,29.10
2022-11-06T06:04:06.578Z,29.10
2022-11-06T06:06:34.293Z,29.10
2022-11-06T06:09:01.883Z,29.20
2022-11-06T06:11:30.336Z,29.20
2022-11-06T06:13:57.968Z,29.20
2022-11-06T06:16:25.566Z,29.30
2022-11-06T06:18:53.114Z,29.30
2022-11-06T06:21:20.949Z,29.30
2022-11-06T06:23:48.978Z,29.30
2022-11-06T06:26:16.674Z,29.30
2022-11-06T06:28:44.731Z,29.30
2022-11-06T06:31:12.462Z,29.40
2022-11-06T06:33:40.010Z,29.40
2022-11-06T06:36:07.811Z,29.40
2022-11-06T06:38:35.592Z,29.40
2022-11-06T06:41:04.467Z,29.40
2022-11-06T06:43:32.138Z,29.40
2022-11-06T06:46:00.848Z,29.40
2022-11-06T06:48:28.636Z,29.40
2022-11-06T06:51:03.133Z,29.50
2022-11-06T06:53:30.751Z,29.40
2022-11-06T06:56:02.530Z,29.40
2022-11-06T06:58:30.616Z,29.40
2022-11-06T07:01:11.447Z,29.40
2022-11-06T07:03:39.344Z,29.40
2022-11-06T07:06:07.419Z,29.40
2022-11-06T07:08:35.040Z,29.40
2022-11-06T07:11:03.419Z,29.40
2022-11-06T07:13:35.506Z,29.50
2022-11-06T07:16:08.009Z,29.60
2022-11-06T07:18:41.353Z,29.70
2022-11-06T07:21:10.778Z,29.70
2022-11-06T07:26:13.835Z,29.80
2022-11-06T07:28:42.084Z,29.80
2022-11-06T07:31:10.816Z,29.80
2022-11-06T07:33:38.374Z,29.80
2022-11-06T07:36:06.924Z,29.80
2022-11-06T07:38:35.315Z,29.80
2022-11-06T07:41:03.993Z,29.80
2022-11-06T07:43:33.149Z,29.90
2022-11-06T07:46:04.992Z,29.90
2022-11-06T07:48:33.870Z,29.80
2022-11-06T07:51:05.599Z,29.80
2022-11-06T07:53:33.634Z,29.80
2022-11-06T07:56:01.362Z,29.80
2022-11-06T07:58:29.436Z,29.80
2022-11-06T08:00:58.035Z,29.80
2022-11-06T08:03:26.131Z,29.80
2022-11-06T08:05:53.654Z,29.80
2022-11-06T08:08:21.206Z,29.70
2022-11-06T08:10:48.786Z,29.70
2022-11-06T08:13:17.289Z,29.70
2022-11-06T08:15:45.193Z,29.70
2022-11-06T08:18:13.058Z,29.60
2022-11-06T08:20:53.167Z,29.70
2022-11-06T08:23:20.833Z,29.70
2022-11-06T08:25:50.683Z,29.70
2022-11-06T08:28:18.253Z,29.70
2022-11-06T08:30:45.819Z,29.70
2022-11-06T08:33:15.982Z,29.80
2022-11-06T08:35:43.648Z,29.80
2022-11-06T08:38:11.616Z,29.80
2022-11-06T08:40:42.478Z,29.80
2022-11-06T08:43:11.077Z,29.80
2022-11-06T08:45:42.227Z,29.80
2022-11-06T08:48:10.070Z,29.80
2022-11-06T08:50:39.026Z,29.90
2022-11-06T08:53:07.040Z,29.90
2022-11-06T08:55:35.002Z,29.80
2022-11-06T08:58:03.372Z,29.80
2022-11-06T09:00:31.623Z,29.80
2022-11-06T09:03:01.219Z,29.70
2022-11-06T09:05:29.744Z,29.70
2022-11-06T09:07:58.088Z,29.70
2022-11-06T09:10:26.120Z,29.60
2022-11-06T09:12:53.962Z,29.60
2022-11-06T09:15:22.584Z,29.60
2022-11-06T09:17:51.607Z,29.50
2022-11-06T09:20:21.061Z,29.50
2022-11-06T09:22:49.198Z,29.50
2022-11-06T09:25:17.654Z,29.50
2022-11-06T09:27:45.580Z,29.40
2022-11-06T09:30:15.013Z,29.40
2022-11-06T09:32:46.612Z,29.40
2022-11-06T09:35:14.406Z,29.40
2022-11-06T09:37:42.956Z,29.40
2022-11-06T09:40:18.817Z,29.30
2022-11-06T09:42:55.688Z,29.40
2022-11-06T09:45:29.064Z,29.30
2022-11-06T09:48:19.163Z,29.30
2022-11-06T09:50:52.899Z,29.20
2022-11-06T09:53:26.389Z,29.20
2022-11-06T09:55:54.038Z,29.20
2022-11-06T09:58:23.906Z,29.10
2022-11-06T10:00:54.094Z,29.20
2022-11-06T10:03:31.809Z,29.10
2022-11-06T10:05:59.487Z,29.10
2022-11-06T10:08:28.661Z,29.10
2022-11-06T10:10:59.335Z,29.00
2022-11-06T10:13:49.766Z,29.00
2022-11-06T10:16:23.720Z,28.90
2022-11-06T10:18:54.112Z,28.90
2022-11-06T10:21:27.976Z,28.80
2022-11-06T10:23:59.175Z,28.80
2022-11-06T10:26:47.655Z,28.80
2022-11-06T10:29:18.259Z,28.80
2022-11-06T10:32:00.907Z,28.80
2022-11-06T10:34:34.415Z,28.80
2022-11-06T10:37:08.627Z,28.80
2022-11-06T10:39:37.115Z,28.80
2022-11-06T10:42:19.061Z,28.70
2022-11-06T10:44:49.564Z,28.70
2022-11-06T10:47:21.270Z,28.70
2022-11-06T10:49:56.412Z,28.60
2022-11-06T10:52:32.984Z,28.60
2022-11-06T10:55:19.014Z,28.60
2022-11-06T10:58:02.897Z,28.50
2022-11-06T11:00:32.515Z,28.50
2022-11-06T11:03:02.430Z,28.40
2022-11-06T11:05:36.986Z,28.40
2022-11-06T11:08:04.841Z,28.40
2022-11-06T11:10:36.870Z,28.30
2022-11-06T11:13:08.356Z,28.30
2022-11-06T11:15:46.202Z,28.30
2022-11-06T11:18:18.397Z,28.20
2022-11-06T11:20:50.293Z,28.20
2022-11-06T11:23:19.428Z,28.10
2022-11-06T11:25:48.854Z,28.10
2022-11-06T11:28:30.840Z,28.10
2022-11-06T11:30:58.665Z,28.00
2022-11-06T11:33:27.063Z,27.90
2022-11-06T11:35:55.533Z,27.80
2022-11-06T11:38:24.070Z,27.80
2022-11-06T11:40:51.936Z,27.70
2022-11-06T11:43:23.997Z,27.70
2022-11-06T11:46:09.911Z,27.60
2022-11-06T11:48:55.948Z,27.50
2022-11-06T11:51:26.273Z,27.40
2022-11-06T11:53:55.507Z,27.40
2022-11-06T11:56:49.691Z,27.30
2022-11-06T11:59:15.983Z,27.30
2022-11-06T12:01:43.790Z,27.30
2022-11-06T12:04:18.213Z,27.30
2022-11-06T12:06:53.629Z,27.20
2022-11-06T12:09:21.635Z,27.20
2022-11-06T12:11:49.381Z,27.10
2022-11-06T12:17:23.213Z,27.10
2022-11-06T12:19:55.572Z,27.10
2022-11-06T12:22:26.024Z,27.10
2022-11-06T12:25:00.434Z,27.10
2022-11-06T12:27:35.853Z,27.10
2022-11-06T12:30:08.081Z,27.00
2022-11-06T12:32:35.672Z,27.10
2022-11-06T12:35:26.205Z,27.10
2022-11-06T12:38:12.666Z,27.00
2022-11-06T12:40:41.969Z,27.00
2022-11-06T12:43:15.535Z,27.00
2022-11-06T12:46:01.612Z,26.90
2022-11-06T12:48:29.092Z,26.90
2022-11-06T12:51:05.910Z,26.90
2022-11-06T12:53:33.424Z,26.80
2022-11-06T12:56:13.545Z,26.80
2022-11-06T12:58:44.222Z,26.80
2022-11-06T13:01:30.425Z,26.80
2022-11-06T13:04:18.191Z,26.80
2022-11-06T13:06:57.958Z,26.80
2022-11-06T13:09:31.053Z,26.70
2022-11-06T13:12:04.750Z,26.70
2022-11-06T13:14:32.329Z,26.70
2022-11-06T13:17:14.969Z,26.70
2022-11-06T13:19:45.544Z,26.70
2022-11-06T13:22:42.541Z,26.60
2022-11-06T13:25:16.238Z,26.60
2022-11-06T13:27:48.858Z,26.60
2022-11-06T13:30:20.160Z,26.60
2022-11-06T13:32:54.427Z,26.60
2022-11-06T13:35:22.640Z,26.60
2022-11-06T13:37:53.657Z,26.50
2022-11-06T13:40:25.173Z,26.50
2022-11-06T13:42:56.836Z,26.50
2022-11-06T13:45:25.557Z,26.50
2022-11-06T13:47:56.367Z,26.50
2022-11-06T13:50:23.917Z,26.50
2022-11-06T13:52:57.193Z,26.40
2022-11-06T13:55:47.382Z,26.40
2022-11-06T13:58:33.389Z,26.40
2022-11-06T14:01:33.280Z,26.40
2022-11-06T14:04:00.979Z,26.30
2022-11-06T14:06:30.045Z,26.30
2022-11-06T14:09:00.515Z,26.30
2022-11-06T14:11:32.367Z,26.20
2022-11-06T14:14:04.313Z,26.20
2022-11-06T14:16:37.632Z,26.20
2022-11-06T14:19:06.978Z,26.10
2022-11-06T14:21:37.601Z,26.10
2022-11-06T14:24:06.007Z,26.10
2022-11-06T14:26:44.037Z,26.10
2022-11-06T14:29:27.018Z,26.10
2022-11-06T14:32:03.365Z,26.10
2022-11-06T14:34:32.546Z,26.10
2022-11-06T14:37:19.949Z,26.10
2022-11-06T14:39:56.574Z,26.00
2022-11-06T14:45:19.681Z,26.00
2022-11-06T14:47:50.073Z,26.00
2022-11-06T14:50:20.557Z,25.90
2022-11-06T14:53:06.827Z,25.90
2022-11-06T14:55:44.219Z,25.90
2022-11-06T14:58:21.037Z,25.90
2022-11-06T15:00:53.647Z,25.90
2022-11-06T15:03:21.238Z,25.80
2022-11-06T15:05:52.520Z,25.80
2022-11-06T15:08:38.814Z,25.80
2022-11-06T15:11:07.506Z,25.80
2022-11-06T15:13:35.068Z,25.70
2022-11-06T15:16:04.132Z,25.70
2022-11-06T15:18:33.182Z,25.70
2022-11-06T15:21:02.597Z,25.70
2022-11-06T15:23:41.826Z,25.70
2022-11-06T15:26:29.391Z,25.70
2022-11-06T15:29:05.298Z,25.70
2022-11-06T15:31:33.835Z,25.60
2022-11-06T15:34:01.391Z,25.60
2022-11-06T15:36:29.847Z,25.60
2022-11-06T15:38:57.407Z,25.50
2022-11-06T15:41:26.014Z,25.50
2022-11-06T15:43:55.245Z,25.50
2022-11-06T15:46:27.982Z,25.50
2022-11-06T15:49:13.969Z,25.50
2022-11-06T15:51:41.571Z,25.50
2022-11-06T15:54:14.312Z,25.50
2022-11-06T15:56:42.748Z,25.40
2022-11-06T15:59:11.889Z,25.40
2022-11-06T16:01:40.453Z,25.40
2022-11-06T16:04:28.130Z,25.40
2022-11-06T16:06:57.063Z,25.40
2022-11-06T16:09:27.031Z,25.30
2022-11-06T16:11:54.870Z,25.30
2022-11-06T16:14:22.695Z,25.30
2022-11-06T16:16:57.204Z,25.30
2022-11-06T16:19:31.030Z,25.20
2022-11-06T16:22:03.531Z,25.30
2022-11-06T16:24:33.627Z,25.20
2022-11-06T16:27:05.796Z,25.20
2022-11-06T16:29:33.649Z,25.20
2022-11-06T16:32:03.215Z,25.20
2022-11-06T16:34:30.691Z,25.10
2022-11-06T16:37:02.437Z,25.10
2022-11-06T16:39:48.078Z,25.10
2022-11-06T16:42:23.687Z,25.10
2022-11-06T16:44:59.845Z,25.00
2022-11-06T16:47:27.450Z,25.00
2022-11-06T16:49:59.066Z,25.00
2022-11-06T16:52:29.477Z,25.00
2022-11-06T16:55:06.145Z,25.00
2022-11-06T16:57:42.993Z,25.00
2022-11-06T17:00:24.195Z,25.00
2022-11-06T17:02:59.450Z,24.90
2022-11-06T17:05:34.361Z,24.90
2022-11-06T17:08:09.741Z,24.90
2022-11-06T17:10:42.068Z,24.90
2022-11-06T17:13:14.727Z,24.90
2022-11-06T17:15:43.101Z,24.90
2022-11-06T17:18:18.029Z,24.90
2022-11-06T17:20:51.783Z,24.90
2022-11-06T17:23:19.847Z,24.90
2022-11-06T17:25:48.218Z,24.90
2022-11-06T17:28:16.639Z,24.80
2022-11-06T17:30:45.059Z,24.80
2022-11-06T17:33:12.903Z,24.80
2022-11-06T17:35:40.579Z,24.90
2022-11-06T17:38:09.360Z,24.80
2022-11-06T17:40:36.980Z,24.80
2022-11-06T17:43:04.511Z,24.80
2022-11-06T17:45:32.855Z,24.80
2022-11-06T17:48:00.371Z,24.70
2022-11-06T17:50:28.007Z,24.70
2022-11-06T17:52:55.548Z,24.70
2022-11-06T17:55:23.061Z,24.60
2022-11-06T17:57:50.762Z,24.60
2022-11-06T18:00:20.607Z,24.50
2022-11-06T18:03:00.865Z,24.50
2022-11-06T18:05:30.646Z,24.40
2022-11-06T18:07:58.185Z,24.40
2022-11-06T18:10:30.387Z,24.30
2022-11-06T18:12:58.387Z,24.30
2022-11-06T18:15:26.770Z,24.30
2022-11-06T18:17:54.256Z,24.20
2022-11-06T18:20:22.636Z,24.20
2022-11-06T18:22:50.274Z,24.20
2022-11-06T18:25:17.798Z,24.20
2022-11-06T18:27:45.327Z,24.10
2022-11-06T18:30:13.477Z,24.10
2022-11-06T18:32:40.982Z,24.10
2022-11-06T18:35:09.596Z,24.10
2022-11-06T18:37:37.104Z,24.10
2022-11-06T18:40:04.769Z,24.20
2022-11-06T18:42:32.341Z,24.20
2022-11-06T18:44:59.845Z,24.20
2022-11-06T18:47:27.421Z,24.20
2022-11-06T18:49:55.762Z,24.30
2022-11-06T18:52:44.468Z,24.30
2022-11-06T18:55:11.002Z,24.30
2022-11-06T18:57:38.511Z,24.30
2022-11-06T19:00:06.549Z,24.30
2022-11-06T19:02:34.672Z,24.30
2022-11-06T19:05:03.081Z,24.30
2022-11-06T19:07:30.768Z,24.20
2022-11-06T19:09:58.370Z,24.20
2022-11-06T19:12:26.828Z,24.20
2022-11-06T19:14:54.364Z,24.20
2022-11-06T19:17:21.956Z,24.10
2022-11-06T19:19:49.650Z,24.10
2022-11-06T19:22:17.216Z,24.00
2022-11-06T19:24:44.705Z,24.00
2022-11-06T19:27:13.062Z,23.90
2022-11-06T19:29:40.541Z,23.90
2022-11-06T19:32:08.093Z,23.90
2022-11-06T19:34:39.188Z,23.90
2022-11-06T19:37:07.120Z,23.90
2022-11-06T19:39:36.024Z,23.90
2022-11-06T19:42:03.577Z,23.90
2022-11-06T19:44:31.136Z,23.90
2022-11-06T19:46:58.687Z,23.90
2022-11-06T19:49:26.174Z,23.90
2022-11-06T19:51:53.766Z,23.90
2022-11-06T19:54:21.335Z,23.90
2022-11-06T19:57:27.831Z,23.90
2022-11-06T19:59:37.808Z,23.90
2022-11-06T20:02:05.543Z,23.80
2022-11-06T20:04:33.147Z,23.90
2022-11-06T20:07:00.716Z,23.90
2022-11-06T20:09:28.610Z,23.80
2022-11-06T20:11:56.169Z,23.80
2022-11-06T20:14:24.578Z,23.70
2022-11-06T20:16:52.097Z,23.70
2022-11-06T20:19:19.685Z,23.60
2022-11-06T20:21:47.184Z,23.60
2022-11-06T20:24:14.909Z,23.60
2022-11-06T20:26:42.428Z,23.60
2022-11-06T20:29:09.909Z,23.60
2022-11-06T20:31:39.213Z,23.60
2022-11-06T20:34:07.104Z,23.50
2022-11-06T20:36:35.867Z,23.50
2022-11-06T20:39:03.567Z,23.50
2022-11-06T20:41:31.489Z,23.50
2022-11-06T20:43:59.505Z,23.50
2022-11-06T20:46:27.022Z,23.50
2022-11-06T20:48:54.606Z,23.50
2022-11-06T20:51:23.538Z,23.50
2022-11-06T20:53:52.357Z,23.50
2022-11-06T20:56:22.011Z,23.50
2022-11-06T20:58:50.305Z,23.50
2022-11-06T21:01:20.914Z,23.50
2022-11-06T21:03:50.072Z,23.50
2022-11-06T21:06:18.364Z,23.50
2022-11-06T21:08:46.433Z,23.50
2022-11-06T21:11:17.176Z,23.40
2022-11-06T21:13:46.097Z,23.40
2022-11-06T21:16:15.451Z,23.40
2022-11-06T21:18:43.270Z,23.40
2022-11-06T21:21:12.276Z,23.30
2022-11-06T21:23:40.353Z,23.40
2022-11-06T21:26:09.410Z,23.30
2022-11-06T21:28:37.445Z,23.30
2022-11-06T21:31:05.348Z,23.30
2022-11-06T21:33:32.879Z,23.30
2022-11-06T21:36:11.921Z,23.30
2022-11-06T21:38:40.650Z,23.30
2022-11-06T21:41:08.696Z,23.30
2022-11-06T21:43:36.565Z,23.30
2022-11-06T21:46:08.401Z,23.30
2022-11-06T21:48:51.747Z,23.30
2022-11-06T21:51:21.455Z,23.30
2022-11-06T21:54:07.845Z,23.20
2022-11-06T21:56:35.528Z,23.20
2022-11-06T21:59:03.681Z,23.20
2022-11-06T22:01:31.998Z,23.20
2022-11-06T22:03:59.848Z,23.20
2022-11-06T22:06:28.140Z,23.20
2022-11-06T22:08:57.149Z,23.20
2022-11-06T22:11:26.395Z,23.20
2022-11-06T22:13:54.718Z,23.20
2022-11-06T22:16:24.421Z,23.20
2022-11-06T22:18:53.228Z,23.20
2022-11-06T22:21:25.158Z,23.20
2022-11-06T22:23:52.717Z,23.20
2022-11-06T22:26:22.774Z,23.20
2022-11-06T22:28:54.767Z,23.10
2022-11-06T22:31:22.415Z,23.10
2022-11-06T22:33:53.756Z,23.10
2022-11-06T22:36:22.213Z,23.00
2022-11-06T22:38:50.188Z,23.00
2022-11-06T22:41:18.904Z,23.00
2022-11-06T22:43:47.071Z,23.00
2022-11-06T22:46:16.273Z,23.00
2022-11-06T22:48:44.224Z,23.00
2022-11-06T22:51:13.313Z,23.10
2022-11-06T22:53:41.213Z,23.10
2022-11-06T22:56:09.878Z,23.00
2022-11-06T22:58:37.446Z,23.00
2022-11-06T23:01:05.093Z,22.90
2022-11-06T23:03:32.745Z,22.80
2022-11-06T23:06:03.662Z,22.80
2022-11-06T23:08:31.265Z,22.70
2022-11-06T23:10:59.452Z,22.70
2022-11-06T23:13:27.039Z,22.60
2022-11-06T23:16:01.057Z,22.60
2022-11-06T23:18:28.738Z,22.60
2022-11-06T23:20:56.431Z,22.60
2022-11-06T23:23:24.251Z,22.50
2022-11-06T23:25:51.995Z,22.50
2022-11-06T23:28:20.522Z,22.50
2022-11-06T23:30:48.096Z,22.50
2022-11-06T23:33:15.901Z,22.50
2022-11-06T23:35:43.634Z,22.50
2022-11-06T23:38:11.116Z,22.50
2022-11-06T23:40:38.671Z,22.50
2022-11-06T23:43:06.196Z,22.50
2022-11-06T23:45:48.978Z,22.50
2022-11-06T23:48:17.026Z,22.50
2022-11-06T23:50:47.476Z,22.50
2022-11-06T23:53:16.572Z,22.50
2022-11-06T23:55:44.480Z,22.50
2022-11-06T23:58:12.073Z,22.50
